KRIV/RIV METAR and TAF weather

Enter ICAO airport designator
Station Type Date Time Source
KRIV METAR 2020/10/20 16:58 UTC NOAA

KRIV 201658Z AUTO 00000KT 9SM CLR 19/19 A2993 RMK AO2 SLP127 T01910188


Station Type Date Time Source
KRIV Decoded METAR 2020/10/20 16:58 UTC NOAA

Riverside / March Air Force Base, CA, United States (KRIV) 33-54N 117-15W 468M
Oct 20, 2020 - 12:58 PM EDT / 2020.10.20 1658 UTC
Wind: Calm:0
Visibility: 9 mile(s):0
Sky conditions: clear
Temperature: 66.4 F (19.1 C)
Dew Point: 65.8 F (18.8 C)
Relative Humidity: 98%
Pressure (altimeter): 29.93 in. Hg (1013 hPa)
ob: KRIV 201658Z AUTO 00000KT 9SM CLR 19/19 A2993 RMK AO2 SLP127 T01910188
cycle: 17

Station Type Date Time Source
KRIV TAF 2020/10/20 15:57 UTC NOAA

TAF
AMD KRIV 201554Z 2015/2118 VRB04KT 4800 BR FEW002 QNH2988INS
BECMG 2016/2017 30004KT 9999 NSW SKC QNH2986INS
BECMG 2019/2020 31009KT 9999 SKC QNH2982INS
TEMPO 2021/2101 31010G15KT
BECMG 2102/2103 30006KT 9999 SKC QNH2983INS
BECMG 2109/2110 VRB04KT 4800 BR FEW003 QNH2982INS
BECMG 2110/2111 15004KT 1600 BR OVC003 QNH2985INS
BECMG 2116/2117 VRB04KT 6000 BR FEW003 QNH2987INS TX30/2022Z TN12/2113Z

Example: see airport list